sensor_id;sensor_type;location;lat;lon;timestamp;temperature;humidity
6421;DHT22;3243;50.958;7.012;2022-09-27T00:01:08;10.80;99.90
6421;DHT22;3243;50.958;7.012;2022-09-27T00:06:14;10.80;99.90
6421;DHT22;3243;50.958;7.012;2022-09-27T00:08:41;10.70;99.90
6421;DHT22;3243;50.958;7.012;2022-09-27T00:11:21;10.80;99.90
6421;DHT22;3243;50.958;7.012;2022-09-27T00:13:49;10.80;99.90
6421;DHT22;3243;50.958;7.012;2022-09-27T00:16:17;10.80;99.90
6421;DHT22;3243;50.958;7.012;2022-09-27T00:18:44;10.80;99.90
6421;DHT22;3243;50.958;7.012;2022-09-27T00:21:14;10.80;99.90
6421;DHT22;3243;50.958;7.012;2022-09-27T00:23:41;10.80;99.90
6421;DHT22;3243;50.958;7.012;2022-09-27T00:26:12;10.70;99.90
6421;DHT22;3243;50.958;7.012;2022-09-27T00:28:39;10.70;99.90
6421;DHT22;3243;50.958;7.012;2022-09-27T00:31:27;10.70;99.90
6421;DHT22;3243;50.958;7.012;2022-09-27T00:33:57;10.60;99.90
6421;DHT22;3243;50.958;7.012;2022-09-27T00:36:25;10.60;99.90
6421;DHT22;3243;50.958;7.012;2022-09-27T00:38:58;10.60;99.90
6421;DHT22;3243;50.958;7.012;2022-09-27T00:41:33;10.60;99.90
6421;DHT22;3243;50.958;7.012;2022-09-27T00:44:01;10.60;99.90
6421;DHT22;3243;50.958;7.012;2022-09-27T00:46:44;11.10;99.90
6421;DHT22;3243;50.958;7.012;2022-09-27T00:49:36;10.60;99.90
6421;DHT22;3243;50.958;7.012;2022-09-27T00:55:31;10.50;99.90
6421;DHT22;3243;50.958;7.012;2022-09-27T00:57:59;10.50;99.90
6421;DHT22;3243;50.958;7.012;2022-09-27T01:00:26;10.60;99.90
6421;DHT22;3243;50.958;7.012;2022-09-27T01:02:57;10.60;99.90
6421;DHT22;3243;50.958;7.012;2022-09-27T01:05:31;10.60;99.90
6421;DHT22;3243;50.958;7.012;2022-09-27T01:07:59;10.60;99.90
6421;DHT22;3243;50.958;7.012;2022-09-27T01:10:35;10.60;99.90
6421;DHT22;3243;50.958;7.012;2022-09-27T01:15:42;10.60;99.90
6421;DHT22;3243;50.958;7.012;2022-09-27T01:20:59;10.60;99.90
6421;DHT22;3243;50.958;7.012;2022-09-27T01:24:00;10.70;99.90
6421;DHT22;3243;50.958;7.012;2022-09-27T01:30:17;10.60;99.90
6421;DHT22;3243;50.958;7.012;2022-09-27T01:32:38;10.50;99.90
6421;DHT22;3243;50.958;7.012;2022-09-27T01:40:32;10.40;99.90
6421;DHT22;3243;50.958;7.012;2022-09-27T01:43:15;10.40;99.90
6421;DHT22;3243;50.958;7.012;2022-09-27T01:46:17;10.40;99.90
6421;DHT22;3243;50.958;7.012;2022-09-27T01:48:49;10.40;99.90
6421;DHT22;3243;50.958;7.012;2022-09-27T01:51:28;10.50;99.90
6421;DHT22;3243;50.958;7.012;2022-09-27T01:53:59;10.50;99.90
6421;DHT22;3243;50.958;7.012;2022-09-27T01:56:44;10.40;99.90
6421;DHT22;3243;50.958;7.012;2022-09-27T01:59:25;10.40;99.90
6421;DHT22;3243;50.958;7.012;2022-09-27T02:01:58;10.60;99.90
6421;DHT22;3243;50.958;7.012;2022-09-27T02:04:31;10.50;99.90
6421;DHT22;3243;50.958;7.012;2022-09-27T02:07:22;10.50;99.90
6421;DHT22;3243;50.958;7.012;2022-09-27T02:15:57;10.50;99.90
6421;DHT22;3243;50.958;7.012;2022-09-27T02:18:40;10.50;99.90
6421;DHT22;3243;50.958;7.012;2022-09-27T02:21:10;10.50;99.90
6421;DHT22;3243;50.958;7.012;2022-09-27T02:23:46;10.50;99.90
6421;DHT22;3243;50.958;7.012;2022-09-27T02:26:18;10.40;99.90
6421;DHT22;3243;50.958;7.012;2022-09-27T02:28:57;10.40;99.90
6421;DHT22;3243;50.958;7.012;2022-09-27T02:34:00;10.40;99.90
6421;DHT22;3243;50.958;7.012;2022-09-27T02:36:28;10.40;99.90
6421;DHT22;3243;50.958;7.012;2022-09-27T02:41:23;10.40;99.90
6421;DHT22;3243;50.958;7.012;2022-09-27T02:43:56;10.40;99.90
6421;DHT22;3243;50.958;7.012;2022-09-27T02:49:29;10.40;99.90
6421;DHT22;3243;50.958;7.012;2022-09-27T03:05:26;10.20;99.90
6421;DHT22;3243;50.958;7.012;2022-09-27T03:07:54;10.20;99.90
6421;DHT22;3243;50.958;7.012;2022-09-27T03:10:24;10.20;99.90
6421;DHT22;3243;50.958;7.012;2022-09-27T03:12:51;10.20;99.90
6421;DHT22;3243;50.958;7.012;2022-09-27T03:17:47;10.20;99.90
6421;DHT22;3243;50.958;7.012;2022-09-27T03:22:40;10.20;99.90
6421;DHT22;3243;50.958;7.012;2022-09-27T03:27:35;10.20;99.90
6421;DHT22;3243;50.958;7.012;2022-09-27T03:42:19;10.30;99.90
6421;DHT22;3243;50.958;7.012;2022-09-27T03:44:46;10.20;99.90
6421;DHT22;3243;50.958;7.012;2022-09-27T03:47:13;10.10;99.90
6421;DHT22;3243;50.958;7.012;2022-09-27T03:49:39;10.00;99.90
6421;DHT22;3243;50.958;7.012;2022-09-27T03:52:06;10.00;99.90
6421;DHT22;3243;50.958;7.012;2022-09-27T03:54:33;9.90;99.90
6421;DHT22;3243;50.958;7.012;2022-09-27T03:56:59;9.90;99.90
6421;DHT22;3243;50.958;7.012;2022-09-27T03:59:26;9.90;99.90
6421;DHT22;3243;50.958;7.012;2022-09-27T04:04:22;9.80;99.90
6421;DHT22;3243;50.958;7.012;2022-09-27T04:21:37;9.60;99.90
6421;DHT22;3243;50.958;7.012;2022-09-27T04:33:53;9.50;99.90
6421;DHT22;3243;50.958;7.012;2022-09-27T04:36:21;9.40;99.90
6421;DHT22;3243;50.958;7.012;2022-09-27T04:38:56;9.40;99.90
6421;DHT22;3243;50.958;7.012;2022-09-27T04:43:51;9.40;99.90
6421;DHT22;3243;50.958;7.012;2022-09-27T04:46:24;9.50;99.90
6421;DHT22;3243;50.958;7.012;2022-09-27T04:53:46;9.50;99.90
6421;DHT22;3243;50.958;7.012;2022-09-27T05:03:36;9.40;99.90
6421;DHT22;3243;50.958;7.012;2022-09-27T05:06:03;9.30;99.90
6421;DHT22;3243;50.958;7.012;2022-09-27T05:10:57;9.30;99.90
6421;DHT22;3243;50.958;7.012;2022-09-27T05:23:12;9.30;99.90
6421;DHT22;3243;50.958;7.012;2022-09-27T05:25:39;9.40;99.90
6421;DHT22;3243;50.958;7.012;2022-09-27T05:33:02;9.40;99.90
6421;DHT22;3243;50.958;7.012;2022-09-27T05:35:29;9.30;99.90
6421;DHT22;3243;50.958;7.012;2022-09-27T05:37:58;9.30;99.90
6421;DHT22;3243;50.958;7.012;2022-09-27T05:40:26;9.30;99.90
6421;DHT22;3243;50.958;7.012;2022-09-27T05:50:30;9.30;99.90
6421;DHT22;3243;50.958;7.012;2022-09-27T05:52:57;9.40;99.90
6421;DHT22;3243;50.958;7.012;2022-09-27T05:55:24;9.40;99.90
6421;DHT22;3243;50.958;7.012;2022-09-27T05:58:00;9.50;99.90
6421;DHT22;3243;50.958;7.012;2022-09-27T06:00:27;9.60;99.90
6421;DHT22;3243;50.958;7.012;2022-09-27T06:02:56;9.60;99.90
6421;DHT22;3243;50.958;7.012;2022-09-27T06:05:26;9.70;99.90
6421;DHT22;3243;50.958;7.012;2022-09-27T06:07:58;9.70;99.90
6421;DHT22;3243;50.958;7.012;2022-09-27T06:13:07;9.90;99.90
6421;DHT22;3243;50.958;7.012;2022-09-27T06:15:36;10.00;99.90
6421;DHT22;3243;50.958;7.012;2022-09-27T06:18:06;10.00;99.90
6421;DHT22;3243;50.958;7.012;2022-09-27T06:20:36;10.10;99.90
6421;DHT22;3243;50.958;7.012;2022-09-27T06:23:11;10.10;99.90
6421;DHT22;3243;50.958;7.012;2022-09-27T06:28:06;10.10;99.90
6421;DHT22;3243;50.958;7.012;2022-09-27T06:30:40;10.20;99.90
6421;DHT22;3243;50.958;7.012;2022-09-27T06:33:13;10.20;99.90
6421;DHT22;3243;50.958;7.012;2022-09-27T06:35:40;10.40;99.90
6421;DHT22;3243;50.958;7.012;2022-09-27T06:38:16;10.20;99.90
6421;DHT22;3243;50.958;7.012;2022-09-27T06:40:43;10.30;99.90
6421;DHT22;3243;50.958;7.012;2022-09-27T06:43:15;10.30;99.90
6421;DHT22;3243;50.958;7.012;2022-09-27T06:45:43;10.40;99.90
6421;DHT22;3243;50.958;7.012;2022-09-27T06:48:12;10.40;99.90
6421;DHT22;3243;50.958;7.012;2022-09-27T06:50:41;10.60;99.90
6421;DHT22;3243;50.958;7.012;2022-09-27T06:53:11;10.60;99.90
6421;DHT22;3243;50.958;7.012;2022-09-27T06:55:39;10.70;99.90
6421;DHT22;3243;50.958;7.012;2022-09-27T06:58:06;10.60;99.90
6421;DHT22;3243;50.958;7.012;2022-09-27T07:00:52;10.60;99.90
6421;DHT22;3243;50.958;7.012;2022-09-27T07:03:21;10.70;99.90
6421;DHT22;3243;50.958;7.012;2022-09-27T07:05:55;10.70;99.90
6421;DHT22;3243;50.958;7.012;2022-09-27T07:08:23;10.80;99.90
6421;DHT22;3243;50.958;7.012;2022-09-27T07:13:21;10.80;99.90
6421;DHT22;3243;50.958;7.012;2022-09-27T07:15:48;10.90;99.90
6421;DHT22;3243;50.958;7.012;2022-09-27T07:23:09;10.70;99.90
6421;DHT22;3243;50.958;7.012;2022-09-27T07:25:36;10.70;99.90
6421;DHT22;3243;50.958;7.012;2022-09-27T07:28:05;10.70;99.90
6421;DHT22;3243;50.958;7.012;2022-09-27T07:30:34;10.70;99.90
6421;DHT22;3243;50.958;7.012;2022-09-27T07:33:03;10.80;99.90
6421;DHT22;3243;50.958;7.012;2022-09-27T07:35:30;10.80;99.90
6421;DHT22;3243;50.958;7.012;2022-09-27T07:40:25;10.80;99.90
6421;DHT22;3243;50.958;7.012;2022-09-27T07:42:58;10.70;99.90
6421;DHT22;3243;50.958;7.012;2022-09-27T07:45:25;10.60;99.90
6421;DHT22;3243;50.958;7.012;2022-09-27T07:47:52;10.60;99.90
6421;DHT22;3243;50.958;7.012;2022-09-27T07:50:20;10.70;99.90
6421;DHT22;3243;50.958;7.012;2022-09-27T07:52:48;10.70;99.90
6421;DHT22;3243;50.958;7.012;2022-09-27T07:55:18;10.70;99.90
6421;DHT22;3243;50.958;7.012;2022-09-27T07:57:45;10.70;99.90
6421;DHT22;3243;50.958;7.012;2022-09-27T08:00:14;10.80;99.90
6421;DHT22;3243;50.958;7.012;2022-09-27T08:02:42;10.80;99.90
6421;DHT22;3243;50.958;7.012;2022-09-27T08:05:11;10.90;99.90
6421;DHT22;3243;50.958;7.012;2022-09-27T08:07:39;10.90;99.90
6421;DHT22;3243;50.958;7.012;2022-09-27T08:10:07;11.00;99.90
6421;DHT22;3243;50.958;7.012;2022-09-27T08:12:34;11.00;99.90
6421;DHT22;3243;50.958;7.012;2022-09-27T08:15:02;11.20;99.90
6421;DHT22;3243;50.958;7.012;2022-09-27T08:17:31;11.20;99.90
6421;DHT22;3243;50.958;7.012;2022-09-27T08:19:58;11.20;99.90
6421;DHT22;3243;50.958;7.012;2022-09-27T08:22:24;11.30;99.90
6421;DHT22;3243;50.958;7.012;2022-09-27T08:27:18;11.30;99.90
6421;DHT22;3243;50.958;7.012;2022-09-27T08:29:45;11.40;99.90
6421;DHT22;3243;50.958;7.012;2022-09-27T08:32:13;11.50;99.90
6421;DHT22;3243;50.958;7.012;2022-09-27T08:34:48;11.70;99.90
6421;DHT22;3243;50.958;7.012;2022-09-27T08:37:15;11.70;99.90
6421;DHT22;3243;50.958;7.012;2022-09-27T08:50:40;12.40;1.00
6421;DHT22;3243;50.958;7.012;2022-09-27T08:53:19;12.70;1.00
6421;DHT22;3243;50.958;7.012;2022-09-27T08:55:49;13.10;99.90
6421;DHT22;3243;50.958;7.012;2022-09-27T08:58:39;13.30;99.90
6421;DHT22;3243;50.958;7.012;2022-09-27T09:01:15;13.50;99.90
6421;DHT22;3243;50.958;7.012;2022-09-27T09:03:53;13.60;99.90
6421;DHT22;3243;50.958;7.012;2022-09-27T09:06:42;14.00;99.90
6421;DHT22;3243;50.958;7.012;2022-09-27T09:26:16;14.50;99.90
6421;DHT22;3243;50.958;7.012;2022-09-27T09:32:07;14.30;81.10
6421;DHT22;3243;50.958;7.012;2022-09-27T09:34:31;14.40;1.00
6421;DHT22;3243;50.958;7.012;2022-09-27T09:37:29;14.30;1.00
6421;DHT22;3243;50.958;7.012;2022-09-27T09:40:13;14.10;1.00
6421;DHT22;3243;50.958;7.012;2022-09-27T09:45:34;14.00;57.50
6421;DHT22;3243;50.958;7.012;2022-09-27T09:48:06;13.90;1.00
6421;DHT22;3243;50.958;7.012;2022-09-27T09:50:40;13.60;99.90
6421;DHT22;3243;50.958;7.012;2022-09-27T09:53:38;13.60;99.90
6421;DHT22;3243;50.958;7.012;2022-09-27T09:58:57;13.30;1.00
6421;DHT22;3243;50.958;7.012;2022-09-27T10:03:58;13.10;1.00
6421;DHT22;3243;50.958;7.012;2022-09-27T10:08:53;12.80;99.90
6421;DHT22;3243;50.958;7.012;2022-09-27T10:11:35;12.70;38.60
6421;DHT22;3243;50.958;7.012;2022-09-27T10:14:04;12.60;1.00
6421;DHT22;3243;50.958;7.012;2022-09-27T10:16:34;12.60;99.90
6421;DHT22;3243;50.958;7.012;2022-09-27T10:19:02;12.60;1.00
6421;DHT22;3243;50.958;7.012;2022-09-27T10:21:30;12.80;99.90
6421;DHT22;3243;50.958;7.012;2022-09-27T10:26:32;13.20;99.90
6421;DHT22;3243;50.958;7.012;2022-09-27T10:31:40;13.30;1.00
6421;DHT22;3243;50.958;7.012;2022-09-27T10:34:27;13.40;1.00
6421;DHT22;3243;50.958;7.012;2022-09-27T10:39:29;13.30;99.90
6421;DHT22;3243;50.958;7.012;2022-09-27T10:44:30;13.20;99.90
6421;DHT22;3243;50.958;7.012;2022-09-27T10:47:04;13.00;99.90
6421;DHT22;3243;50.958;7.012;2022-09-27T10:49:41;12.80;99.90
6421;DHT22;3243;50.958;7.012;2022-09-27T10:52:19;12.60;99.90
6421;DHT22;3243;50.958;7.012;2022-09-27T10:54:58;12.60;1.00
6421;DHT22;3243;50.958;7.012;2022-09-27T10:57:29;12.60;99.90
6421;DHT22;3243;50.958;7.012;2022-09-27T10:59:58;12.80;1.00
6421;DHT22;3243;50.958;7.012;2022-09-27T11:02:32;13.00;99.90
6421;DHT22;3243;50.958;7.012;2022-09-27T11:05:12;13.30;55.00
6421;DHT22;3243;50.958;7.012;2022-09-27T11:07:49;13.50;1.00
6421;DHT22;3243;50.958;7.012;2022-09-27T11:13:18;13.50;99.90
6421;DHT22;3243;50.958;7.012;2022-09-27T11:30:19;13.20;99.90
6421;DHT22;3243;50.958;7.012;2022-09-27T11:47:17;14.20;99.90
6421;DHT22;3243;50.958;7.012;2022-09-27T11:53:19;14.10;99.90
6421;DHT22;3243;50.958;7.012;2022-09-27T11:58:37;14.30;99.90
6421;DHT22;3243;50.958;7.012;2022-09-27T12:09:23;13.60;99.90
6421;DHT22;3243;50.958;7.012;2022-09-27T12:11:59;13.50;1.00
6421;DHT22;3243;50.958;7.012;2022-09-27T12:14:34;13.30;1.00
6421;DHT22;3243;50.958;7.012;2022-09-27T12:17:05;13.20;99.90
6421;DHT22;3243;50.958;7.012;2022-09-27T12:19:38;13.10;99.90
6421;DHT22;3243;50.958;7.012;2022-09-27T12:22:13;13.10;99.90
6421;DHT22;3243;50.958;7.012;2022-09-27T12:24:42;13.30;1.00
6421;DHT22;3243;50.958;7.012;2022-09-27T12:27:15;13.10;1.00
6421;DHT22;3243;50.958;7.012;2022-09-27T12:29:45;13.20;99.90
6421;DHT22;3243;50.958;7.012;2022-09-27T12:32:19;13.30;1.00
6421;DHT22;3243;50.958;7.012;2022-09-27T12:37:41;13.30;99.90
6421;DHT22;3243;50.958;7.012;2022-09-27T12:40:17;13.10;1.00
6421;DHT22;3243;50.958;7.012;2022-09-27T12:48:30;12.50;99.90
6421;DHT22;3243;50.958;7.012;2022-09-27T12:51:14;12.20;99.90
6421;DHT22;3243;50.958;7.012;2022-09-27T12:59:27;12.00;99.90
6421;DHT22;3243;50.958;7.012;2022-09-27T13:04:57;12.10;1.00
6421;DHT22;3243;50.958;7.012;2022-09-27T13:12:56;11.70;48.10
6421;DHT22;3243;50.958;7.012;2022-09-27T13:15:32;11.50;99.90
6421;DHT22;3243;50.958;7.012;2022-09-27T13:18:01;11.00;99.90
6421;DHT22;3243;50.958;7.012;2022-09-27T13:22:59;10.90;99.90
6421;DHT22;3243;50.958;7.012;2022-09-27T13:30:55;11.20;99.90
6421;DHT22;3243;50.958;7.012;2022-09-27T13:46:59;11.70;1.00
6421;DHT22;3243;50.958;7.012;2022-09-27T13:49:39;11.90;1.00
6421;DHT22;3243;50.958;7.012;2022-09-27T13:52:24;11.90;1.00
6421;DHT22;3243;50.958;7.012;2022-09-27T13:54:55;11.90;99.90
6421;DHT22;3243;50.958;7.012;2022-09-27T13:57:42;12.20;1.00
6421;DHT22;3243;50.958;7.012;2022-09-27T14:00:20;12.20;99.90
6421;DHT22;3243;50.958;7.012;2022-09-27T14:05:54;12.50;99.90
6421;DHT22;3243;50.958;7.012;2022-09-27T14:08:31;12.60;99.90
6421;DHT22;3243;50.958;7.012;2022-09-27T14:11:00;12.80;99.90
6421;DHT22;3243;50.958;7.012;2022-09-27T14:13:29;12.80;99.90
6421;DHT22;3243;50.958;7.012;2022-09-27T14:16:00;12.90;99.90
6421;DHT22;3243;50.958;7.012;2022-09-27T14:18:31;13.00;1.00
6421;DHT22;3243;50.958;7.012;2022-09-27T14:21:20;12.80;1.00
6421;DHT22;3243;50.958;7.012;2022-09-27T14:26:23;12.70;99.90
6421;DHT22;3243;50.958;7.012;2022-09-27T14:28:51;12.90;99.90
6421;DHT22;3243;50.958;7.012;2022-09-27T14:31:21;12.80;99.90
6421;DHT22;3243;50.958;7.012;2022-09-27T14:33:49;12.80;99.90
6421;DHT22;3243;50.958;7.012;2022-09-27T14:39:12;12.90;99.90
6421;DHT22;3243;50.958;7.012;2022-09-27T14:41:38;12.90;99.90
6421;DHT22;3243;50.958;7.012;2022-09-27T14:44:18;12.90;1.00
6421;DHT22;3243;50.958;7.012;2022-09-27T14:47:21;12.60;1.00
6421;DHT22;3243;50.958;7.012;2022-09-27T14:52:21;12.60;99.90
6421;DHT22;3243;50.958;7.012;2022-09-27T14:54:58;12.50;1.00
6421;DHT22;3243;50.958;7.012;2022-09-27T14:57:26;12.60;99.90
6421;DHT22;3243;50.958;7.012;2022-09-27T14:59:54;12.30;21.00
6421;DHT22;3243;50.958;7.012;2022-09-27T15:02:24;12.30;99.90
6421;DHT22;3243;50.958;7.012;2022-09-27T15:04:52;12.40;1.00
6421;DHT22;3243;50.958;7.012;2022-09-27T15:09:48;12.50;99.90
6421;DHT22;3243;50.958;7.012;2022-09-27T15:12:23;12.70;1.00
6421;DHT22;3243;50.958;7.012;2022-09-27T15:14:53;12.60;84.70
6421;DHT22;3243;50.958;7.012;2022-09-27T15:17:21;12.60;99.90
6421;DHT22;3243;50.958;7.012;2022-09-27T15:20:03;12.50;99.90
6421;DHT22;3243;50.958;7.012;2022-09-27T15:22:47;12.20;99.90
6421;DHT22;3243;50.958;7.012;2022-09-27T15:27:53;11.90;18.30
6421;DHT22;3243;50.958;7.012;2022-09-27T15:30:36;11.70;17.10
6421;DHT22;3243;50.958;7.012;2022-09-27T15:33:04;11.60;1.00
6421;DHT22;3243;50.958;7.012;2022-09-27T15:35:33;11.50;1.00
6421;DHT22;3243;50.958;7.012;2022-09-27T15:43:22;11.50;99.90
6421;DHT22;3243;50.958;7.012;2022-09-27T15:45:57;11.50;1.00
6421;DHT22;3243;50.958;7.012;2022-09-27T15:48:31;11.50;99.90
6421;DHT22;3243;50.958;7.012;2022-09-27T15:56:03;11.40;1.00
6421;DHT22;3243;50.958;7.012;2022-09-27T15:58:33;11.30;1.00
6421;DHT22;3243;50.958;7.012;2022-09-27T16:01:03;11.20;99.90
6421;DHT22;3243;50.958;7.012;2022-09-27T16:03:33;11.60;99.90
6421;DHT22;3243;50.958;7.012;2022-09-27T16:06:02;11.50;99.90
6421;DHT22;3243;50.958;7.012;2022-09-27T16:08:30;11.40;1.00
6421;DHT22;3243;50.958;7.012;2022-09-27T16:10:58;11.20;99.90
6421;DHT22;3243;50.958;7.012;2022-09-27T16:13:26;11.10;99.90
6421;DHT22;3243;50.958;7.012;2022-09-27T16:15:59;11.00;99.90
6421;DHT22;3243;50.958;7.012;2022-09-27T16:18:27;10.90;99.90
6421;DHT22;3243;50.958;7.012;2022-09-27T16:20:57;10.70;89.30
6421;DHT22;3243;50.958;7.012;2022-09-27T16:25:52;10.60;99.90
6421;DHT22;3243;50.958;7.012;2022-09-27T16:28:19;10.60;99.90
6421;DHT22;3243;50.958;7.012;2022-09-27T16:30:46;10.60;99.90
6421;DHT22;3243;50.958;7.012;2022-09-27T16:33:13;10.60;99.90
6421;DHT22;3243;50.958;7.012;2022-09-27T16:40:36;10.80;1.00
6421;DHT22;3243;50.958;7.012;2022-09-27T16:43:03;10.80;99.90
6421;DHT22;3243;50.958;7.012;2022-09-27T16:45:34;10.70;1.00
6421;DHT22;3243;50.958;7.012;2022-09-27T16:48:02;10.60;99.90
6421;DHT22;3243;50.958;7.012;2022-09-27T16:53:15;10.50;1.00
6421;DHT22;3243;50.958;7.012;2022-09-27T17:00:36;10.50;99.90
6421;DHT22;3243;50.958;7.012;2022-09-27T17:12:52;10.40;99.90
6421;DHT22;3243;50.958;7.012;2022-09-27T17:15:22;10.40;99.90
6421;DHT22;3243;50.958;7.012;2022-09-27T17:22:43;10.20;99.90
6421;DHT22;3243;50.958;7.012;2022-09-27T17:27:37;10.20;99.90
6421;DHT22;3243;50.958;7.012;2022-09-27T17:30:04;10.10;1.00
6421;DHT22;3243;50.958;7.012;2022-09-27T17:32:32;10.10;99.90
6421;DHT22;3243;50.958;7.012;2022-09-27T17:35:00;10.10;99.90
6421;DHT22;3243;50.958;7.012;2022-09-27T17:37:28;10.10;99.90
6421;DHT22;3243;50.958;7.012;2022-09-27T17:44:50;10.10;99.90
6421;DHT22;3243;50.958;7.012;2022-09-27T17:50:03;10.20;1.00
6421;DHT22;3243;50.958;7.012;2022-09-27T17:52:48;10.10;99.90
6421;DHT22;3243;50.958;7.012;2022-09-27T17:57:43;10.00;99.90
6421;DHT22;3243;50.958;7.012;2022-09-27T18:02:39;10.10;99.90
6421;DHT22;3243;50.958;7.012;2022-09-27T18:07:33;10.20;99.90
6421;DHT22;3243;50.958;7.012;2022-09-27T18:09:59;10.20;99.90
6421;DHT22;3243;50.958;7.012;2022-09-27T18:12:29;10.20;1.00
6421;DHT22;3243;50.958;7.012;2022-09-27T18:17:28;10.10;99.90
6421;DHT22;3243;50.958;7.012;2022-09-27T18:22:28;10.10;1.00
6421;DHT22;3243;50.958;7.012;2022-09-27T18:27:23;10.10;1.00
6421;DHT22;3243;50.958;7.012;2022-09-27T18:29:50;10.10;99.90
6421;DHT22;3243;50.958;7.012;2022-09-27T18:32:18;10.10;1.00
6421;DHT22;3243;50.958;7.012;2022-09-27T18:37:11;10.10;99.90
6421;DHT22;3243;50.958;7.012;2022-09-27T18:39:38;10.10;1.00
6421;DHT22;3243;50.958;7.012;2022-09-27T18:49:28;10.00;1.00
6421;DHT22;3243;50.958;7.012;2022-09-27T19:01:49;9.90;99.90
6421;DHT22;3243;50.958;7.012;2022-09-27T19:04:18;9.90;1.00
6421;DHT22;3243;50.958;7.012;2022-09-27T19:06:53;9.90;99.90
6421;DHT22;3243;50.958;7.012;2022-09-27T19:09:20;9.80;99.90
6421;DHT22;3243;50.958;7.012;2022-09-27T19:14:19;9.90;25.40
6421;DHT22;3243;50.958;7.012;2022-09-27T19:19:15;9.80;1.00
6421;DHT22;3243;50.958;7.012;2022-09-27T19:21:42;9.70;99.90
6421;DHT22;3243;50.958;7.012;2022-09-27T19:29:04;9.60;99.90
6421;DHT22;3243;50.958;7.012;2022-09-27T19:31:32;9.50;99.90
6421;DHT22;3243;50.958;7.012;2022-09-27T19:36:27;9.60;99.90
6421;DHT22;3243;50.958;7.012;2022-09-27T19:43:53;9.70;99.90
6421;DHT22;3243;50.958;7.012;2022-09-27T19:46:21;9.70;99.90
6421;DHT22;3243;50.958;7.012;2022-09-27T19:48:49;9.60;99.90
6421;DHT22;3243;50.958;7.012;2022-09-27T19:51:20;9.60;99.90
6421;DHT22;3243;50.958;7.012;2022-09-27T19:53:48;9.60;99.90
6421;DHT22;3243;50.958;7.012;2022-09-27T20:01:14;9.60;99.90
6421;DHT22;3243;50.958;7.012;2022-09-27T20:03:42;9.60;99.90
6421;DHT22;3243;50.958;7.012;2022-09-27T20:06:12;9.50;99.90
6421;DHT22;3243;50.958;7.012;2022-09-27T20:11:12;9.60;99.90
6421;DHT22;3243;50.958;7.012;2022-09-27T20:13:39;9.60;99.90
6421;DHT22;3243;50.958;7.012;2022-09-27T20:18:38;9.60;99.90
6421;DHT22;3243;50.958;7.012;2022-09-27T20:23:33;9.60;99.90
6421;DHT22;3243;50.958;7.012;2022-09-27T20:26:01;9.60;99.90
6421;DHT22;3243;50.958;7.012;2022-09-27T20:28:28;9.60;99.90
6421;DHT22;3243;50.958;7.012;2022-09-27T20:30:56;9.60;99.90
6421;DHT22;3243;50.958;7.012;2022-09-27T20:33:23;9.70;99.90
6421;DHT22;3243;50.958;7.012;2022-09-27T20:41:18;9.70;99.90
6421;DHT22;3243;50.958;7.012;2022-09-27T20:43:46;9.70;99.90
6421;DHT22;3243;50.958;7.012;2022-09-27T20:46:15;9.70;99.90
6421;DHT22;3243;50.958;7.012;2022-09-27T20:48:43;9.70;99.90
6421;DHT22;3243;50.958;7.012;2022-09-27T20:51:11;9.80;99.90
6421;DHT22;3243;50.958;7.012;2022-09-27T20:56:19;9.90;99.90
6421;DHT22;3243;50.958;7.012;2022-09-27T20:58:48;9.80;99.90
6421;DHT22;3243;50.958;7.012;2022-09-27T21:01:15;9.80;99.90
6421;DHT22;3243;50.958;7.012;2022-09-27T21:03:44;9.80;99.90
6421;DHT22;3243;50.958;7.012;2022-09-27T21:06:11;9.80;99.90
6421;DHT22;3243;50.958;7.012;2022-09-27T21:08:39;9.80;99.90
6421;DHT22;3243;50.958;7.012;2022-09-27T21:11:09;9.70;99.90
6421;DHT22;3243;50.958;7.012;2022-09-27T21:13:37;10.40;99.90
6421;DHT22;3243;50.958;7.012;2022-09-27T21:16:06;9.70;99.90
6421;DHT22;3243;50.958;7.012;2022-09-27T21:18:34;9.70;99.90
6421;DHT22;3243;50.958;7.012;2022-09-27T21:21:09;9.80;99.90
6421;DHT22;3243;50.958;7.012;2022-09-27T21:23:37;9.80;99.90
6421;DHT22;3243;50.958;7.012;2022-09-27T21:26:14;9.80;99.90
6421;DHT22;3243;50.958;7.012;2022-09-27T21:28:53;9.80;99.90
6421;DHT22;3243;50.958;7.012;2022-09-27T21:31:25;9.80;99.90
6421;DHT22;3243;50.958;7.012;2022-09-27T21:33:54;9.80;99.90
6421;DHT22;3243;50.958;7.012;2022-09-27T21:36:26;9.80;99.90
6421;DHT22;3243;50.958;7.012;2022-09-27T21:38:54;9.90;99.90
6421;DHT22;3243;50.958;7.012;2022-09-27T21:46:26;9.80;99.90
6421;DHT22;3243;50.958;7.012;2022-09-27T21:48:58;9.80;99.90
6421;DHT22;3243;50.958;7.012;2022-09-27T21:51:30;9.80;99.90
6421;DHT22;3243;50.958;7.012;2022-09-27T21:53:59;9.80;99.90
6421;DHT22;3243;50.958;7.012;2022-09-27T21:56:28;9.80;99.90
6421;DHT22;3243;50.958;7.012;2022-09-27T22:01:25;9.60;99.90
6421;DHT22;3243;50.958;7.012;2022-09-27T22:03:52;9.60;99.90
6421;DHT22;3243;50.958;7.012;2022-09-27T22:06:27;9.60;99.90
6421;DHT22;3243;50.958;7.012;2022-09-27T22:08:55;9.50;99.90
6421;DHT22;3243;50.958;7.012;2022-09-27T22:11:35;9.50;99.90
6421;DHT22;3243;50.958;7.012;2022-09-27T22:18:57;9.40;99.90
6421;DHT22;3243;50.958;7.012;2022-09-27T22:21:26;9.40;99.90
6421;DHT22;3243;50.958;7.012;2022-09-27T22:23:58;9.50;99.90
6421;DHT22;3243;50.958;7.012;2022-09-27T22:26:35;9.40;99.90
6421;DHT22;3243;50.958;7.012;2022-09-27T22:29:02;9.40;99.90
6421;DHT22;3243;50.958;7.012;2022-09-27T22:31:29;9.40;99.90
6421;DHT22;3243;50.958;7.012;2022-09-27T22:33:58;9.50;99.90
6421;DHT22;3243;50.958;7.012;2022-09-27T22:36:25;9.50;99.90
6421;DHT22;3243;50.958;7.012;2022-09-27T22:38:53;9.50;99.90
6421;DHT22;3243;50.958;7.012;2022-09-27T22:41:20;9.50;99.90
6421;DHT22;3243;50.958;7.012;2022-09-27T22:43:47;9.50;99.90
6421;DHT22;3243;50.958;7.012;2022-09-27T22:46:14;9.60;99.90
6421;DHT22;3243;50.958;7.012;2022-09-27T22:48:41;9.60;99.90
6421;DHT22;3243;50.958;7.012;2022-09-27T22:51:08;9.60;99.90
6421;DHT22;3243;50.958;7.012;2022-09-27T22:56:14;9.60;99.90
6421;DHT22;3243;50.958;7.012;2022-09-27T22:58:42;9.50;99.90
6421;DHT22;3243;50.958;7.012;2022-09-27T23:01:19;9.60;99.90
6421;DHT22;3243;50.958;7.012;2022-09-27T23:03:47;9.60;99.90
6421;DHT22;3243;50.958;7.012;2022-09-27T23:06:16;9.60;99.90
6421;DHT22;3243;50.958;7.012;2022-09-27T23:08:43;9.70;99.90
6421;DHT22;3243;50.958;7.012;2022-09-27T23:11:12;9.60;99.90
6421;DHT22;3243;50.958;7.012;2022-09-27T23:13:40;9.60;99.90
6421;DHT22;3243;50.958;7.012;2022-09-27T23:16:13;9.60;99.90
6421;DHT22;3243;50.958;7.012;2022-09-27T23:18:40;9.60;99.90
6421;DHT22;3243;50.958;7.012;2022-09-27T23:21:11;9.60;99.90
6421;DHT22;3243;50.958;7.012;2022-09-27T23:23:40;9.60;99.90
6421;DHT22;3243;50.958;7.012;2022-09-27T23:26:10;9.50;99.90
6421;DHT22;3243;50.958;7.012;2022-09-27T23:31:07;9.50;99.90
6421;DHT22;3243;50.958;7.012;2022-09-27T23:33:35;9.50;99.90
6421;DHT22;3243;50.958;7.012;2022-09-27T23:38:32;9.40;99.90
6421;DHT22;3243;50.958;7.012;2022-09-27T23:40:59;9.30;99.90
6421;DHT22;3243;50.958;7.012;2022-09-27T23:43:26;9.30;99.90
6421;DHT22;3243;50.958;7.012;2022-09-27T23:48:23;9.40;99.90
6421;DHT22;3243;50.958;7.012;2022-09-27T23:50:50;9.40;99.90
6421;DHT22;3243;50.958;7.012;2022-09-27T23:53:19;9.30;99.90
6421;DHT22;3243;50.958;7.012;2022-09-27T23:55:46;9.30;99.90
